Huvudsida
METAR-TAF:

METAR-TAF

Flygplatser :

Samedans flygplats

Sankt Moritz, Schweiz

latitud: 46-32-03N, longitud: 9-53-03E, höjd: 1707 m

Aktuellt väderrapport

Denna rapport gjordes för 25 minuter sedan, klockan 23:20 UTC
Vind 1 kt från sydväst
Temperatur 3°C
Fuktighet 93%
Tryck 1017 hPa
Sikt 10 km eller mer
Inga moln under 1 500 m eller inga cumulonimbus

METAR: LSZS 262320Z AUTO 22001KT CAVOK 03/02 Q1017

Tid: 01:45 (23:45 UTC)

Väderprognos

Denna rapport gjordes för 9 timmar och 20 minuter sedan, klockan 14:25 UTC
Prognos gäller från 26 kl. 15 UTC till 26 kl. 24 UTC
Vind 3 kt varierande vindriktning
Sikt 10 km eller mer
Spridda moln på en höjd av 4500 ft
Sannolikhet 30% :
Temporärt
från 26 kl. 15 UTC till 26 kl. 17 UTC
regnskurar

TAF: LSZS 261425Z 2615/2624 VRB03KT 9999 SCT045 TX14/2615Z PROB30 TEMPO 2615/2617 SHRA

Aktuella väderrapporter och prognoser från 4000 flygplatser (METAR- och TAF-rapporter).

De tillgängliga stationerna syns som gula och röda prickar på kartan.

För musen över prickarna för att se namnen på stationerna.

Klicka sedan för att få väderrapporter och prognoser.

För att ändra kartan: Klicka på de gröna knapparna med ett svart kors på för att zooma in; den gröna knappen med ett streck på för att zooma ut; eller på de gröna pilarna för angränsande kartor.


METAR-TAF: